Time,TemperatureF,DewpointF,PressureIn,WindDirection,WindDirectionDegrees,WindSpeedMPH,WindSpeedGustMPH,Humidity,HourlyPrecipIn,Conditions,Clouds,dailyrainin,SolarRadiationWatts/m^2,SoftwareType,DateUTC
2013-05-15 00:12:00,73.0,67.0,30.40,East,80,16.0,30.0,82,0.00,,,0.00,0.000000,,2013-05-15 10:12:00,
2013-05-15 00:22:00,73.0,67.0,30.40,East,80,16.0,30.0,82,0.00,,,0.00,0.000000,,2013-05-15 10:22:00,
2013-05-15 00:32:00,73.0,67.0,30.40,East,80,16.0,30.0,82,0.00,,,0.00,0.000000,,2013-05-15 10:32:00,
2013-05-15 00:42:00,73.0,67.0,30.40,East,80,16.0,30.0,82,0.00,,,0.00,0.000000,,2013-05-15 10:42:00,
2013-05-15 00:52:00,73.0,67.0,30.40,East,80,16.0,30.0,82,0.00,,,0.00,0.000000,,2013-05-15 10:52:00,
2013-05-15 01:17:00,72.0,67.0,30.39,East,80,20.0,31.0,83,0.00,,,0.00,0.000000,,2013-05-15 11:17:00,
2013-05-15 01:34:00,72.0,67.0,30.39,East,80,20.0,31.0,83,0.00,,,0.00,0.000000,,2013-05-15 11:34:00,
2013-05-15 01:52:00,72.0,67.0,30.39,East,80,20.0,31.0,83,0.00,,,0.00,0.000000,,2013-05-15 11:52:00,
2013-05-15 02:13:00,73.0,68.0,30.38,East,81,16.0,34.0,84,0.00,,,0.00,0.000000,,2013-05-15 12:13:00,
2013-05-15 02:35:00,73.0,68.0,30.38,East,81,16.0,34.0,84,0.00,,,0.00,0.000000,,2013-05-15 12:35:00,
2013-05-15 02:52:00,73.0,68.0,30.38,East,81,16.0,34.0,84,0.00,,,0.00,0.000000,,2013-05-15 12:52:00,
2013-05-15 03:15:00,73.0,66.0,30.36,ENE,67,16.0,30.0,78,0.00,,,0.00,0.000000,,2013-05-15 13:15:00,
2013-05-15 03:24:00,73.0,66.0,30.36,ENE,67,16.0,30.0,78,0.00,,,0.00,0.000000,,2013-05-15 13:24:00,
2013-05-15 03:35:00,73.0,66.0,30.36,ENE,67,16.0,30.0,78,0.00,,,0.00,0.000000,,2013-05-15 13:35:00,
2013-05-15 03:52:00,73.0,66.0,30.36,ENE,67,16.0,30.0,78,0.00,,,0.00,0.000000,,2013-05-15 13:52:00,
2013-05-15 04:12:00,73.0,65.0,30.35,ENE,72,18.0,27.0,75,0.00,,,0.00,0.000000,,2013-05-15 14:12:00,
2013-05-15 04:25:00,73.0,65.0,30.35,ENE,72,18.0,27.0,75,0.00,,,0.00,0.000000,,2013-05-15 14:25:00,
2013-05-15 04:43:00,73.0,65.0,30.35,ENE,72,18.0,27.0,75,0.00,,,0.00,0.000000,,2013-05-15 14:43:00,
2013-05-15 04:52:00,73.0,65.0,30.35,ENE,72,18.0,27.0,75,0.00,,,0.00,0.000000,,2013-05-15 14:52:00,
2013-05-15 04:53:00,71.0,64.0,30.36,ENE,60,14.0,29.0,79,0.00,,,0.00,0.000000,,2013-05-15 14:53:00,
2013-05-15 05:14:00,71.0,64.0,30.36,ENE,60,14.0,29.0,79,0.00,,,0.00,0.000000,,2013-05-15 15:14:00,
2013-05-15 05:26:00,71.0,64.0,30.36,ENE,60,14.0,29.0,79,0.00,,,0.00,0.000000,,2013-05-15 15:26:00,
2013-05-15 05:35:00,71.0,64.0,30.36,ENE,60,14.0,29.0,79,0.00,,,0.00,0.000000,,2013-05-15 15:35:00,
2013-05-15 06:19:00,71.0,63.0,30.36,ENE,64,14.0,29.0,77,0.00,,,0.00,0.000000,,2013-05-15 16:19:00,
2013-05-15 06:27:00,71.0,63.0,30.36,ENE,64,14.0,29.0,77,0.00,,,0.00,0.000000,,2013-05-15 16:27:00,
2013-05-15 06:34:00,71.0,63.0,30.36,ENE,64,14.0,29.0,77,0.00,,,0.00,0.000000,,2013-05-15 16:34:00,
2013-05-15 06:45:00,71.0,63.0,30.36,ENE,64,14.0,29.0,77,0.00,,,0.00,0.000000,,2013-05-15 16:45:00,
2013-05-15 06:52:00,71.0,63.0,30.36,ENE,64,14.0,29.0,77,0.00,,,0.00,0.000000,,2013-05-15 16:52:00,
2013-05-15 07:26:00,75.0,67.0,30.38,East,88,15.0,26.0,77,0.00,,,0.00,0.000000,,2013-05-15 17:26:00,
2013-05-15 07:34:00,75.0,67.0,30.38,East,88,15.0,26.0,77,0.00,,,0.00,0.000000,,2013-05-15 17:34:00,
2013-05-15 07:44:00,75.0,67.0,30.38,East,88,15.0,26.0,77,0.00,,,0.00,0.000000,,2013-05-15 17:44:00,
2013-05-15 07:53:00,75.0,65.0,30.41,ENE,72,14.0,25.0,70,0.00,,,0.00,104.000000,,2013-05-15 17:53:00,
2013-05-15 08:13:00,75.0,65.0,30.41,ENE,72,14.0,25.0,70,0.00,,,0.00,104.000000,,2013-05-15 18:13:00,
2013-05-15 08:25:00,75.0,65.0,30.41,ENE,72,14.0,25.0,70,0.00,,,0.00,104.000000,,2013-05-15 18:25:00,
2013-05-15 08:35:00,75.0,65.0,30.41,ENE,72,14.0,25.0,70,0.00,,,0.00,104.000000,,2013-05-15 18:35:00,
2013-05-15 09:14:00,75.0,68.0,30.42,East,81,19.0,35.0,80,0.00,,,0.00,366.000000,,2013-05-15 19:14:00,
2013-05-15 09:26:00,75.0,68.0,30.42,East,81,19.0,35.0,80,0.00,,,0.00,366.000000,,2013-05-15 19:26:00,
2013-05-15 09:34:00,75.0,68.0,30.42,East,81,19.0,35.0,80,0.00,,,0.00,366.000000,,2013-05-15 19:34:00,
2013-05-15 09:43:00,75.0,68.0,30.42,East,81,19.0,35.0,80,0.00,,,0.00,366.000000,,2013-05-15 19:43:00,
2013-05-15 09:52:00,75.0,68.0,30.42,East,81,19.0,35.0,80,0.00,,,0.00,366.000000,,2013-05-15 19:52:00,
2013-05-15 10:15:00,77.0,63.0,30.42,East,91,25.0,36.0,62,0.00,,,0.00,444.000000,,2013-05-15 20:15:00,
2013-05-15 10:25:00,77.0,63.0,30.42,East,91,25.0,36.0,62,0.00,,,0.00,444.000000,,2013-05-15 20:25:00,
2013-05-15 10:34:00,77.0,63.0,30.42,East,91,25.0,36.0,62,0.00,,,0.00,444.000000,,2013-05-15 20:34:00,
2013-05-15 10:44:00,77.0,63.0,30.42,East,91,25.0,36.0,62,0.00,,,0.00,444.000000,,2013-05-15 20:44:00,
2013-05-15 10:52:00,77.0,63.0,30.42,East,91,25.0,36.0,62,0.00,,,0.00,444.000000,,2013-05-15 20:52:00,
2013-05-15 10:53:00,80.0,66.0,30.41,East,83,21.0,38.0,63,0.00,,,0.00,890.000000,,2013-05-15 20:53:00,
2013-05-15 11:26:00,80.0,66.0,30.41,East,83,21.0,38.0,63,0.00,,,0.00,890.000000,,2013-05-15 21:26:00,
2013-05-15 11:38:00,80.0,66.0,30.41,East,83,21.0,38.0,63,0.00,,,0.00,890.000000,,2013-05-15 21:38:00,
2013-05-15 11:46:00,80.0,66.0,30.41,East,83,21.0,38.0,63,0.00,,,0.00,890.000000,,2013-05-15 21:46:00,
2013-05-15 12:15:00,79.0,67.0,30.39,East,81,24.0,41.0,67,0.00,,,0.00,1080.000000,,2013-05-15 22:15:00,
2013-05-15 12:27:00,79.0,67.0,30.39,East,81,24.0,41.0,67,0.00,,,0.00,1080.000000,,2013-05-15 22:27:00,
2013-05-15 12:45:00,79.0,67.0,30.39,East,81,24.0,41.0,67,0.00,,,0.00,1080.000000,,2013-05-15 22:45:00,
2013-05-15 12:52:00,79.0,67.0,30.39,East,81,24.0,41.0,67,0.00,,,0.00,1080.000000,,2013-05-15 22:52:00,
2013-05-15 13:36:00,78.0,64.0,30.39,East,92,26.0,38.0,63,0.00,,,0.00,1195.000000,,2013-05-15 23:36:00,
2013-05-15 13:52:00,78.0,64.0,30.39,East,92,26.0,38.0,63,0.00,,,0.00,1195.000000,,2013-05-15 23:52:00,
2013-05-15 14:25:00,77.0,64.0,30.38,East,87,27.0,42.0,65,0.00,,,0.00,1244.000000,,2013-05-16 00:25:00,
2013-05-15 14:34:00,77.0,64.0,30.38,East,87,27.0,42.0,65,0.00,,,0.00,1244.000000,,2013-05-16 00:34:00,
2013-05-15 14:45:00,77.0,64.0,30.38,East,87,27.0,42.0,65,0.00,,,0.00,1244.000000,,2013-05-16 00:45:00,
2013-05-15 14:52:00,77.0,64.0,30.38,East,87,27.0,42.0,65,0.00,,,0.00,1244.000000,,2013-05-16 00:52:00,
2013-05-15 15:14:00,77.0,64.0,30.37,East,90,25.0,39.0,65,0.00,,,0.00,1165.000000,,2013-05-16 01:14:00,
2013-05-15 15:25:00,77.0,64.0,30.37,East,90,25.0,39.0,65,0.00,,,0.00,1165.000000,,2013-05-16 01:25:00,
2013-05-15 15:35:00,77.0,64.0,30.37,East,90,25.0,39.0,65,0.00,,,0.00,1165.000000,,2013-05-16 01:35:00,
2013-05-15 15:45:00,77.0,64.0,30.37,East,90,25.0,39.0,65,0.00,,,0.00,1165.000000,,2013-05-16 01:45:00,
2013-05-15 16:26:00,79.0,66.0,30.36,East,87,23.0,37.0,65,0.00,,,0.00,1099.000000,,2013-05-16 02:26:00,
2013-05-15 16:36:00,79.0,66.0,30.36,East,87,23.0,37.0,65,0.00,,,0.00,1099.000000,,2013-05-16 02:36:00,
2013-05-15 16:43:00,79.0,66.0,30.36,East,87,23.0,37.0,65,0.00,,,0.00,1099.000000,,2013-05-16 02:43:00,
2013-05-15 16:51:00,79.0,66.0,30.36,East,87,23.0,37.0,65,0.00,,,0.00,1099.000000,,2013-05-16 02:51:00,
2013-05-15 16:53:00,76.0,65.0,30.37,East,83,23.0,36.0,69,0.00,,,0.00,902.000000,,2013-05-16 02:53:00,
2013-05-15 17:24:00,76.0,65.0,30.37,East,83,23.0,36.0,69,0.00,,,0.00,902.000000,,2013-05-16 03:24:00,
2013-05-15 17:34:00,76.0,65.0,30.37,East,83,23.0,36.0,69,0.00,,,0.00,902.000000,,2013-05-16 03:34:00,
2013-05-15 17:44:00,76.0,65.0,30.37,East,83,23.0,36.0,69,0.00,,,0.00,902.000000,,2013-05-16 03:44:00,
2013-05-15 18:23:00,77.0,66.0,30.38,East,83,20.0,33.0,68,0.00,,,0.00,625.000000,,2013-05-16 04:23:00,
2013-05-15 18:33:00,77.0,66.0,30.38,East,83,20.0,33.0,68,0.00,,,0.00,625.000000,,2013-05-16 04:33:00,
2013-05-15 18:42:00,77.0,66.0,30.38,East,83,20.0,33.0,68,0.00,,,0.00,625.000000,,2013-05-16 04:42:00,
2013-05-15 18:52:00,77.0,66.0,30.38,East,83,20.0,33.0,68,0.00,,,0.00,625.000000,,2013-05-16 04:52:00,
2013-05-15 19:22:00,73.0,67.0,30.39,East,89,22.0,33.0,82,0.00,,,0.00,59.000000,,2013-05-16 05:22:00,
2013-05-15 19:32:00,73.0,67.0,30.39,East,89,22.0,33.0,82,0.00,,,0.00,59.000000,,2013-05-16 05:32:00,
2013-05-15 19:42:00,73.0,67.0,30.39,East,89,22.0,33.0,82,0.00,,,0.00,59.000000,,2013-05-16 05:42:00,
2013-05-15 19:52:00,73.0,67.0,30.39,East,89,22.0,33.0,82,0.00,,,0.00,59.000000,,2013-05-16 05:52:00,
2013-05-15 20:22:00,74.0,68.0,30.40,East,79,21.0,38.0,81,0.00,,,0.00,89.000000,,2013-05-16 06:22:00,
2013-05-15 20:33:00,74.0,68.0,30.40,East,79,21.0,38.0,81,0.00,,,0.00,89.000000,,2013-05-16 06:33:00,
2013-05-15 20:43:00,74.0,68.0,30.40,East,79,21.0,38.0,81,0.00,,,0.00,89.000000,,2013-05-16 06:43:00,
2013-05-15 20:52:00,74.0,68.0,30.40,East,79,21.0,38.0,81,0.00,,,0.00,89.000000,,2013-05-16 06:52:00,
2013-05-15 20:53:00,74.0,68.0,30.41,ENE,78,22.0,37.0,82,0.00,,,0.00,1.000000,,2013-05-16 06:53:00,
2013-05-15 21:24:00,74.0,68.0,30.41,ENE,78,22.0,37.0,82,0.00,,,0.00,1.000000,,2013-05-16 07:24:00,
2013-05-15 21:34:00,74.0,68.0,30.41,ENE,78,22.0,37.0,82,0.00,,,0.00,1.000000,,2013-05-16 07:34:00,
2013-05-15 21:44:00,74.0,68.0,30.41,ENE,78,22.0,37.0,82,0.00,,,0.00,1.000000,,2013-05-16 07:44:00,
2013-05-15 21:53:00,73.0,68.0,30.43,ENE,69,19.0,35.0,85,0.00,,,0.00,0.000000,,2013-05-16 07:53:00,
2013-05-15 22:23:00,73.0,68.0,30.43,ENE,69,19.0,35.0,85,0.00,,,0.00,0.000000,,2013-05-16 08:23:00,
2013-05-15 22:34:00,73.0,68.0,30.43,ENE,69,19.0,35.0,85,0.00,,,0.00,0.000000,,2013-05-16 08:34:00,
2013-05-15 22:44:00,73.0,68.0,30.43,ENE,69,19.0,35.0,85,0.00,,,0.00,0.000000,,2013-05-16 08:44:00,
2013-05-15 22:53:00,72.0,66.0,30.43,ENE,71,20.0,33.0,81,0.00,,,0.00,0.000000,,2013-05-16 08:53:00,
2013-05-15 23:14:00,72.0,66.0,30.43,ENE,71,20.0,33.0,81,0.00,,,0.00,0.000000,,2013-05-16 09:14:00,
2013-05-15 23:24:00,72.0,66.0,30.43,ENE,71,20.0,33.0,81,0.00,,,0.00,0.000000,,2013-05-16 09:24:00,
2013-05-15 23:35:00,72.0,66.0,30.43,ENE,71,20.0,33.0,81,0.00,,,0.00,0.000000,,2013-05-16 09:35:00,
2013-05-15 23:45:00,72.0,66.0,30.43,ENE,71,20.0,33.0,81,0.00,,,0.00,0.000000,,2013-05-16 09:45:00,
2013-05-15 23:53:00,73.0,68.0,30.43,ENE,67,17.0,31.0,83,0.00,,,0.00,0.000000,,2013-05-16 09:53:00,